<?xml version="1.0" encoding="UTF-8" standalone="no" ?>
<gpx xmlns="http://www.topografix.com/GPX/1/1" xmlns:xsi="http://www.w3.org/2001/XMLSchema-instance" xsi:schemaLocation="http://www.topografix.com/GPX/1/1 http://www.topografix.com/GPX/1/1/gpx.xsd" version="1.1" creator="VisuGPX - https://www.visugpx.com">
  <metadata>
    <name>Rando - Col de Méran avec Pirun</name>
    <desc><![CDATA[Petite rando avec de bien beaux points de vue.]]></desc>
  </metadata>
  <trk>
    <name><![CDATA[12-MARS-21 10:29:08]]></name>
    <trkseg>
      <trkpt lat="44.85766" lon="4.7549">
        <ele>543.28</ele>
        <time>2021-03-12T08:10:17Z</time>
      </trkpt>
      <trkpt lat="44.85766" lon="4.75491">
        <ele>542.8</ele>
        <time>2021-03-12T08:10:21Z</time>
      </trkpt>
      <trkpt lat="44.85766" lon="4.75491">
        <ele>546.17</ele>
        <time>2021-03-12T08:10:22Z</time>
      </trkpt>
      <trkpt lat="44.85766" lon="4.75492">
        <ele>546.17</ele>
        <time>2021-03-12T08:10:41Z</time>
      </trkpt>
      <trkpt lat="44.85766" lon="4.75492">
        <ele>548.09</ele>
        <time>2021-03-12T08:11:01Z</time>
      </trkpt>
      <trkpt lat="44.85766" lon="4.75492">
        <ele>548.57</ele>
        <time>2021-03-12T08:11:14Z</time>
      </trkpt>
      <trkpt lat="44.85766" lon="4.75493">
        <ele>549.05</ele>
        <time>2021-03-12T08:11:18Z</time>
      </trkpt>
      <trkpt lat="44.85761" lon="4.75514">
        <ele>549.53</ele>
        <time>2021-03-12T08:11:33Z</time>
      </trkpt>
      <trkpt lat="44.85759" lon="4.75519">
        <ele>551.93</ele>
        <time>2021-03-12T08:11:37Z</time>
      </trkpt>
      <trkpt lat="44.85758" lon="4.7552">
        <ele>544.24</ele>
        <time>2021-03-12T08:11:38Z</time>
      </trkpt>
      <trkpt lat="44.85758" lon="4.75521">
        <ele>550.97</ele>
        <time>2021-03-12T08:11:39Z</time>
      </trkpt>
      <trkpt lat="44.85753" lon="4.75538">
        <ele>551.93</ele>
        <time>2021-03-12T08:11:52Z</time>
      </trkpt>
      <trkpt lat="44.85749" lon="4.75551">
        <ele>553.38</ele>
        <time>2021-03-12T08:12:02Z</time>
      </trkpt>
      <trkpt lat="44.85747" lon="4.75556">
        <ele>554.82</ele>
        <time>2021-03-12T08:12:07Z</time>
      </trkpt>
      <trkpt lat="44.85745" lon="4.75559">
        <ele>555.78</ele>
        <time>2021-03-12T08:12:11Z</time>
      </trkpt>
      <trkpt lat="44.85742" lon="4.75563">
        <ele>556.74</ele>
        <time>2021-03-12T08:12:16Z</time>
      </trkpt>
      <trkpt lat="44.85746" lon="4.75558">
        <ele>555.3</ele>
        <time>2021-03-12T08:12:22Z</time>
      </trkpt>
      <trkpt lat="44.85751" lon="4.75547">
        <ele>552.9</ele>
        <time>2021-03-12T08:12:31Z</time>
      </trkpt>
      <trkpt lat="44.85752" lon="4.75543">
        <ele>552.41</ele>
        <time>2021-03-12T08:12:33Z</time>
      </trkpt>
      <trkpt lat="44.85762" lon="4.75516">
        <ele>549.05</ele>
        <time>2021-03-12T08:12:46Z</time>
      </trkpt>
      <trkpt lat="44.85769" lon="4.75488">
        <ele>547.61</ele>
        <time>2021-03-12T08:12:59Z</time>
      </trkpt>
      <trkpt lat="44.85769" lon="4.75486">
        <ele>548.57</ele>
        <time>2021-03-12T08:13:08Z</time>
      </trkpt>
      <trkpt lat="44.85767" lon="4.75492">
        <ele>548.57</ele>
        <time>2021-03-12T08:13:16Z</time>
      </trkpt>
      <trkpt lat="44.85765" lon="4.75506">
        <ele>549.53</ele>
        <time>2021-03-12T08:13:24Z</time>
      </trkpt>
      <trkpt lat="44.85761" lon="4.75515">
        <ele>549.53</ele>
        <time>2021-03-12T08:13:29Z</time>
      </trkpt>
      <trkpt lat="44.85754" lon="4.75537">
        <ele>551.45</ele>
        <time>2021-03-12T08:13:42Z</time>
      </trkpt>
      <trkpt lat="44.85747" lon="4.75553">
        <ele>553.86</ele>
        <time>2021-03-12T08:13:54Z</time>
      </trkpt>
      <trkpt lat="44.85747" lon="4.75554">
        <ele>553.86</ele>
        <time>2021-03-12T08:14:13Z</time>
      </trkpt>
      <trkpt lat="44.85743" lon="4.7556">
        <ele>556.26</ele>
        <time>2021-03-12T08:14:23Z</time>
      </trkpt>
      <trkpt lat="44.85739" lon="4.75568">
        <ele>558.18</ele>
        <time>2021-03-12T08:14:32Z</time>
      </trkpt>
      <trkpt lat="44.85734" lon="4.75582">
        <ele>562.03</ele>
        <time>2021-03-12T08:14:45Z</time>
      </trkpt>
      <trkpt lat="44.85733" lon="4.75584">
        <ele>562.51</ele>
        <time>2021-03-12T08:14:47Z</time>
      </trkpt>
      <trkpt lat="44.8573" lon="4.75598">
        <ele>565.39</ele>
        <time>2021-03-12T08:14:59Z</time>
      </trkpt>
      <trkpt lat="44.85726" lon="4.75602">
        <ele>567.32</ele>
        <time>2021-03-12T08:15:06Z</time>
      </trkpt>
      <trkpt lat="44.85722" lon="4.75608">
        <ele>568.28</ele>
        <time>2021-03-12T08:15:14Z</time>
      </trkpt>
      <trkpt lat="44.85719" lon="4.75613">
        <ele>570.68</ele>
        <time>2021-03-12T08:15:20Z</time>
      </trkpt>
      <trkpt lat="44.85716" lon="4.75617">
        <ele>571.16</ele>
        <time>2021-03-12T08:15:24Z</time>
      </trkpt>
      <trkpt lat="44.85715" lon="4.75622">
        <ele>572.12</ele>
        <time>2021-03-12T08:15:28Z</time>
      </trkpt>
      <trkpt lat="44.8571" lon="4.75628">
        <ele>573.56</ele>
        <time>2021-03-12T08:15:34Z</time>
      </trkpt>
      <trkpt lat="44.85705" lon="4.75635">
        <ele>575.01</ele>
        <time>2021-03-12T08:15:42Z</time>
      </trkpt>
      <trkpt lat="44.85702" lon="4.75639">
        <ele>575.97</ele>
        <time>2021-03-12T08:15:47Z</time>
      </trkpt>
      <trkpt lat="44.85698" lon="4.75643">
        <ele>577.41</ele>
        <time>2021-03-12T08:15:51Z</time>
      </trkpt>
      <trkpt lat="44.8569" lon="4.75651">
        <ele>579.33</ele>
        <time>2021-03-12T08:16:04Z</time>
      </trkpt>
      <trkpt lat="44.8569" lon="4.75651">
        <ele>578.85</ele>
        <time>2021-03-12T08:16:29Z</time>
      </trkpt>
      <trkpt lat="44.8569" lon="4.75651">
        <ele>579.33</ele>
        <time>2021-03-12T08:16:58Z</time>
      </trkpt>
      <trkpt lat="44.8569" lon="4.75651">
        <ele>578.85</ele>
        <time>2021-03-12T08:17:30Z</time>
      </trkpt>
      <trkpt lat="44.85688" lon="4.75654">
        <ele>579.33</ele>
        <time>2021-03-12T08:17:54Z</time>
      </trkpt>
      <trkpt lat="44.85672" lon="4.75669">
        <ele>579.81</ele>
        <time>2021-03-12T08:18:07Z</time>
      </trkpt>
      <trkpt lat="44.85657" lon="4.75679">
        <ele>581.73</ele>
        <time>2021-03-12T08:18:19Z</time>
      </trkpt>
      <trkpt lat="44.85654" lon="4.75681">
        <ele>581.73</ele>
        <time>2021-03-12T08:18:23Z</time>
      </trkpt>
      <trkpt lat="44.85647" lon="4.75685">
        <ele>582.7</ele>
        <time>2021-03-12T08:18:29Z</time>
      </trkpt>
      <trkpt lat="44.85644" lon="4.75687">
        <ele>583.18</ele>
        <time>2021-03-12T08:18:32Z</time>
      </trkpt>
      <trkpt lat="44.85636" lon="4.75691">
        <ele>584.62</ele>
        <time>2021-03-12T08:18:39Z</time>
      </trkpt>
      <trkpt lat="44.85629" lon="4.75694">
        <ele>585.1</ele>
        <time>2021-03-12T08:18:45Z</time>
      </trkpt>
      <trkpt lat="44.85622" lon="4.75696">
        <ele>586.06</ele>
        <time>2021-03-12T08:18:52Z</time>
      </trkpt>
      <trkpt lat="44.8561" lon="4.757">
        <ele>587.5</ele>
        <time>2021-03-12T08:19:04Z</time>
      </trkpt>
      <trkpt lat="44.85602" lon="4.75705">
        <ele>589.43</ele>
        <time>2021-03-12T08:19:13Z</time>
      </trkpt>
      <trkpt lat="44.85599" lon="4.75708">
        <ele>589.91</ele>
        <time>2021-03-12T08:19:15Z</time>
      </trkpt>
      <trkpt lat="44.85595" lon="4.75711">
        <ele>589.91</ele>
        <time>2021-03-12T08:19:19Z</time>
      </trkpt>
      <trkpt lat="44.85581" lon="4.75724">
        <ele>593.27</ele>
        <time>2021-03-12T08:19:33Z</time>
      </trkpt>
      <trkpt lat="44.85578" lon="4.75727">
        <ele>593.27</ele>
        <time>2021-03-12T08:19:37Z</time>
      </trkpt>
      <trkpt lat="44.85566" lon="4.75738">
        <ele>595.67</ele>
        <time>2021-03-12T08:19:48Z</time>
      </trkpt>
      <trkpt lat="44.85553" lon="4.75756">
        <ele>596.64</ele>
        <time>2021-03-12T08:20:00Z</time>
      </trkpt>
      <trkpt lat="44.85551" lon="4.75762">
        <ele>596.15</ele>
        <time>2021-03-12T08:20:10Z</time>
      </trkpt>
      <trkpt lat="44.85551" lon="4.75762">
        <ele>596.64</ele>
        <time>2021-03-12T08:20:44Z</time>
      </trkpt>
      <trkpt lat="44.85551" lon="4.75762">
        <ele>596.15</ele>
        <time>2021-03-12T08:21:02Z</time>
      </trkpt>
      <trkpt lat="44.85551" lon="4.75762">
        <ele>596.15</ele>
        <time>2021-03-12T08:21:09Z</time>
      </trkpt>
      <trkpt lat="44.8555" lon="4.75772">
        <ele>595.19</ele>
        <time>2021-03-12T08:21:14Z</time>
      </trkpt>
      <trkpt lat="44.85549" lon="4.75787">
        <ele>594.71</ele>
        <time>2021-03-12T08:21:23Z</time>
      </trkpt>
      <trkpt lat="44.85553" lon="4.75815">
        <ele>594.23</ele>
        <time>2021-03-12T08:21:38Z</time>
      </trkpt>
      <trkpt lat="44.85558" lon="4.75845">
        <ele>592.79</ele>
        <time>2021-03-12T08:21:52Z</time>
      </trkpt>
      <trkpt lat="44.85567" lon="4.75868">
        <ele>591.35</ele>
        <time>2021-03-12T08:22:05Z</time>
      </trkpt>
      <trkpt lat="44.85571" lon="4.75885">
        <ele>591.35</ele>
        <time>2021-03-12T08:22:15Z</time>
      </trkpt>
      <trkpt lat="44.85568" lon="4.75896">
        <ele>592.31</ele>
        <time>2021-03-12T08:22:22Z</time>
      </trkpt>
      <trkpt lat="44.85562" lon="4.75911">
        <ele>592.31</ele>
        <time>2021-03-12T08:22:29Z</time>
      </trkpt>
      <trkpt lat="44.85556" lon="4.75926">
        <ele>591.83</ele>
        <time>2021-03-12T08:22:39Z</time>
      </trkpt>
      <trkpt lat="44.85555" lon="4.75931">
        <ele>591.35</ele>
        <time>2021-03-12T08:22:42Z</time>
      </trkpt>
      <trkpt lat="44.85551" lon="4.75938">
        <ele>591.35</ele>
        <time>2021-03-12T08:22:46Z</time>
      </trkpt>
      <trkpt lat="44.85538" lon="4.75965">
        <ele>589.91</ele>
        <time>2021-03-12T08:23:00Z</time>
      </trkpt>
      <trkpt lat="44.85531" lon="4.75982">
        <ele>588.95</ele>
        <time>2021-03-12T08:23:12Z</time>
      </trkpt>
      <trkpt lat="44.8553" lon="4.75985">
        <ele>588.46</ele>
        <time>2021-03-12T08:23:14Z</time>
      </trkpt>
      <trkpt lat="44.85522" lon="4.75998">
        <ele>587.98</ele>
        <time>2021-03-12T08:23:22Z</time>
      </trkpt>
      <trkpt lat="44.85517" lon="4.76007">
        <ele>587.5</ele>
        <time>2021-03-12T08:23:27Z</time>
      </trkpt>
      <trkpt lat="44.85512" lon="4.76016">
        <ele>587.02</ele>
        <time>2021-03-12T08:23:32Z</time>
      </trkpt>
      <trkpt lat="44.85502" lon="4.76037">
        <ele>586.54</ele>
        <time>2021-03-12T08:23:43Z</time>
      </trkpt>
      <trkpt lat="44.855" lon="4.76042">
        <ele>586.06</ele>
        <time>2021-03-12T08:23:47Z</time>
      </trkpt>
      <trkpt lat="44.85498" lon="4.76044">
        <ele>586.06</ele>
        <time>2021-03-12T08:23:59Z</time>
      </trkpt>
      <trkpt lat="44.85495" lon="4.76048">
        <ele>585.58</ele>
        <time>2021-03-12T08:24:17Z</time>
      </trkpt>
      <trkpt lat="44.85494" lon="4.76049">
        <ele>585.58</ele>
        <time>2021-03-12T08:24:27Z</time>
      </trkpt>
      <trkpt lat="44.85484" lon="4.7607">
        <ele>585.1</ele>
        <time>2021-03-12T08:24:41Z</time>
      </trkpt>
      <trkpt lat="44.85472" lon="4.76088">
        <ele>584.62</ele>
        <time>2021-03-12T08:24:56Z</time>
      </trkpt>
      <trkpt lat="44.85463" lon="4.76102">
        <ele>584.62</ele>
        <time>2021-03-12T08:25:05Z</time>
      </trkpt>
      <trkpt lat="44.85457" lon="4.76112">
        <ele>584.14</ele>
        <time>2021-03-12T08:25:11Z</time>
      </trkpt>
      <trkpt lat="44.85455" lon="4.76116">
        <ele>583.66</ele>
        <time>2021-03-12T08:25:13Z</time>
      </trkpt>
      <trkpt lat="44.85451" lon="4.76127">
        <ele>583.66</ele>
        <time>2021-03-12T08:25:21Z</time>
      </trkpt>
      <trkpt lat="44.85449" lon="4.76132">
        <ele>583.66</ele>
        <time>2021-03-12T08:25:37Z</time>
      </trkpt>
      <trkpt lat="44.85447" lon="4.76137">
        <ele>583.18</ele>
        <time>2021-03-12T08:25:46Z</time>
      </trkpt>
      <trkpt lat="44.85435" lon="4.76163">
        <ele>582.7</ele>
        <time>2021-03-12T08:25:59Z</time>
      </trkpt>
      <trkpt lat="44.85425" lon="4.76184">
        <ele>581.25</ele>
        <time>2021-03-12T08:26:13Z</time>
      </trkpt>
      <trkpt lat="44.85409" lon="4.7621">
        <ele>581.25</ele>
        <time>2021-03-12T08:26:29Z</time>
      </trkpt>
      <trkpt lat="44.85395" lon="4.76228">
        <ele>580.77</ele>
        <time>2021-03-12T08:26:41Z</time>
      </trkpt>
      <trkpt lat="44.85393" lon="4.76231">
        <ele>581.25</ele>
        <time>2021-03-12T08:26:47Z</time>
      </trkpt>
      <trkpt lat="44.8539" lon="4.76238">
        <ele>581.25</ele>
        <time>2021-03-12T08:26:51Z</time>
      </trkpt>
      <trkpt lat="44.85379" lon="4.7625">
        <ele>581.25</ele>
        <time>2021-03-12T08:26:59Z</time>
      </trkpt>
      <trkpt lat="44.85374" lon="4.76251">
        <ele>580.29</ele>
        <time>2021-03-12T08:27:07Z</time>
      </trkpt>
      <trkpt lat="44.85363" lon="4.76256">
        <ele>579.81</ele>
        <time>2021-03-12T08:27:18Z</time>
      </trkpt>
      <trkpt lat="44.85343" lon="4.76266">
        <ele>577.89</ele>
        <time>2021-03-12T08:27:34Z</time>
      </trkpt>
      <trkpt lat="44.8532" lon="4.76277">
        <ele>575.49</ele>
        <time>2021-03-12T08:27:50Z</time>
      </trkpt>
      <trkpt lat="44.85315" lon="4.76281">
        <ele>574.53</ele>
        <time>2021-03-12T08:27:55Z</time>
      </trkpt>
      <trkpt lat="44.85295" lon="4.76293">
        <ele>573.56</ele>
        <time>2021-03-12T08:28:08Z</time>
      </trkpt>
      <trkpt lat="44.85289" lon="4.76302">
        <ele>572.12</ele>
        <time>2021-03-12T08:28:16Z</time>
      </trkpt>
      <trkpt lat="44.85266" lon="4.76317">
        <ele>570.68</ele>
        <time>2021-03-12T08:28:31Z</time>
      </trkpt>
      <trkpt lat="44.85252" lon="4.76326">
        <ele>569.24</ele>
        <time>2021-03-12T08:28:45Z</time>
      </trkpt>
      <trkpt lat="44.85242" lon="4.76331">
        <ele>568.76</ele>
        <time>2021-03-12T08:28:51Z</time>
      </trkpt>
      <trkpt lat="44.85228" lon="4.76347">
        <ele>566.35</ele>
        <time>2021-03-12T08:29:05Z</time>
      </trkpt>
      <trkpt lat="44.85219" lon="4.76358">
        <ele>565.39</ele>
        <time>2021-03-12T08:29:12Z</time>
      </trkpt>
      <trkpt lat="44.85217" lon="4.76364">
        <ele>564.43</ele>
        <time>2021-03-12T08:29:16Z</time>
      </trkpt>
      <trkpt lat="44.85213" lon="4.76369">
        <ele>564.43</ele>
        <time>2021-03-12T08:29:20Z</time>
      </trkpt>
      <trkpt lat="44.85207" lon="4.76375">
        <ele>563.47</ele>
        <time>2021-03-12T08:29:24Z</time>
      </trkpt>
      <trkpt lat="44.85197" lon="4.76392">
        <ele>561.07</ele>
        <time>2021-03-12T08:29:36Z</time>
      </trkpt>
      <trkpt lat="44.85189" lon="4.76406">
        <ele>560.11</ele>
        <time>2021-03-12T08:29:45Z</time>
      </trkpt>
      <trkpt lat="44.85181" lon="4.76421">
        <ele>558.18</ele>
        <time>2021-03-12T08:29:55Z</time>
      </trkpt>
      <trkpt lat="44.85176" lon="4.76428">
        <ele>557.7</ele>
        <time>2021-03-12T08:30:00Z</time>
      </trkpt>
      <trkpt lat="44.85163" lon="4.76439">
        <ele>554.82</ele>
        <time>2021-03-12T08:30:13Z</time>
      </trkpt>
      <trkpt lat="44.85145" lon="4.76446">
        <ele>552.41</ele>
        <time>2021-03-12T08:30:27Z</time>
      </trkpt>
      <trkpt lat="44.85127" lon="4.76463">
        <ele>549.53</ele>
        <time>2021-03-12T08:30:42Z</time>
      </trkpt>
      <trkpt lat="44.85124" lon="4.76465">
        <ele>549.05</ele>
        <time>2021-03-12T08:30:45Z</time>
      </trkpt>
      <trkpt lat="44.8512" lon="4.7647">
        <ele>548.09</ele>
        <time>2021-03-12T08:30:59Z</time>
      </trkpt>
      <trkpt lat="44.85119" lon="4.76473">
        <ele>548.09</ele>
        <time>2021-03-12T08:31:16Z</time>
      </trkpt>
      <trkpt lat="44.85119" lon="4.76475">
        <ele>548.09</ele>
        <time>2021-03-12T08:31:17Z</time>
      </trkpt>
      <trkpt lat="44.8512" lon="4.76486">
        <ele>545.69</ele>
        <time>2021-03-12T08:31:23Z</time>
      </trkpt>
      <trkpt lat="44.85123" lon="4.76505">
        <ele>543.28</ele>
        <time>2021-03-12T08:31:35Z</time>
      </trkpt>
      <trkpt lat="44.85122" lon="4.76511">
        <ele>541.84</ele>
        <time>2021-03-12T08:31:39Z</time>
      </trkpt>
      <trkpt lat="44.8512" lon="4.76514">
        <ele>540.88</ele>
        <time>2021-03-12T08:31:42Z</time>
      </trkpt>
      <trkpt lat="44.85111" lon="4.76538">
        <ele>537.99</ele>
        <time>2021-03-12T08:31:55Z</time>
      </trkpt>
      <trkpt lat="44.85103" lon="4.76559">
        <ele>535.59</ele>
        <time>2021-03-12T08:32:08Z</time>
      </trkpt>
      <trkpt lat="44.85096" lon="4.76579">
        <ele>533.19</ele>
        <time>2021-03-12T08:32:20Z</time>
      </trkpt>
      <trkpt lat="44.85087" lon="4.76604">
        <ele>531.75</ele>
        <time>2021-03-12T08:32:34Z</time>
      </trkpt>
      <trkpt lat="44.85087" lon="4.76605">
        <ele>531.75</ele>
        <time>2021-03-12T08:32:39Z</time>
      </trkpt>
      <trkpt lat="44.85085" lon="4.76613">
        <ele>531.27</ele>
        <time>2021-03-12T08:32:49Z</time>
      </trkpt>
      <trkpt lat="44.85081" lon="4.76626">
        <ele>530.3</ele>
        <time>2021-03-12T08:33:01Z</time>
      </trkpt>
      <trkpt lat="44.8508" lon="4.76631">
        <ele>529.82</ele>
        <time>2021-03-12T08:33:04Z</time>
      </trkpt>
      <trkpt lat="44.85077" lon="4.76641">
        <ele>528.86</ele>
        <time>2021-03-12T08:33:09Z</time>
      </trkpt>
      <trkpt lat="44.85074" lon="4.7665">
        <ele>527.42</ele>
        <time>2021-03-12T08:33:15Z</time>
      </trkpt>
      <trkpt lat="44.85066" lon="4.76661">
        <ele>525.98</ele>
        <time>2021-03-12T08:33:23Z</time>
      </trkpt>
      <trkpt lat="44.85063" lon="4.76673">
        <ele>524.54</ele>
        <time>2021-03-12T08:33:30Z</time>
      </trkpt>
      <trkpt lat="44.8506" lon="4.76679">
        <ele>524.06</ele>
        <time>2021-03-12T08:33:34Z</time>
      </trkpt>
      <trkpt lat="44.85049" lon="4.76703">
        <ele>522.13</ele>
        <time>2021-03-12T08:33:48Z</time>
      </trkpt>
      <trkpt lat="44.85044" lon="4.7673">
        <ele>519.73</ele>
        <time>2021-03-12T08:34:03Z</time>
      </trkpt>
      <trkpt lat="44.85044" lon="4.76733">
        <ele>519.73</ele>
        <time>2021-03-12T08:34:04Z</time>
      </trkpt>
      <trkpt lat="44.85041" lon="4.76754">
        <ele>517.81</ele>
        <time>2021-03-12T08:34:16Z</time>
      </trkpt>
      <trkpt lat="44.85041" lon="4.76757">
        <ele>517.81</ele>
        <time>2021-03-12T08:34:18Z</time>
      </trkpt>
      <trkpt lat="44.85042" lon="4.76768">
        <ele>517.33</ele>
        <time>2021-03-12T08:34:23Z</time>
      </trkpt>
      <trkpt lat="44.85043" lon="4.76777">
        <ele>517.33</ele>
        <time>2021-03-12T08:34:27Z</time>
      </trkpt>
      <trkpt lat="44.85045" lon="4.76787">
        <ele>516.85</ele>
        <time>2021-03-12T08:34:31Z</time>
      </trkpt>
      <trkpt lat="44.85047" lon="4.76806">
        <ele>515.4</ele>
        <time>2021-03-12T08:34:42Z</time>
      </trkpt>
      <trkpt lat="44.85043" lon="4.76832">
        <ele>513</ele>
        <time>2021-03-12T08:34:54Z</time>
      </trkpt>
      <trkpt lat="44.85042" lon="4.76835">
        <ele>512.52</ele>
        <time>2021-03-12T08:34:57Z</time>
      </trkpt>
      <trkpt lat="44.85042" lon="4.76838">
        <ele>512.52</ele>
        <time>2021-03-12T08:34:59Z</time>
      </trkpt>
      <trkpt lat="44.8504" lon="4.76846">
        <ele>511.08</ele>
        <time>2021-03-12T08:35:03Z</time>
      </trkpt>
      <trkpt lat="44.8504" lon="4.76855">
        <ele>510.12</ele>
        <time>2021-03-12T08:35:08Z</time>
      </trkpt>
      <trkpt lat="44.85038" lon="4.76863">
        <ele>508.19</ele>
        <time>2021-03-12T08:35:14Z</time>
      </trkpt>
      <trkpt lat="44.85034" lon="4.7687">
        <ele>507.23</ele>
        <time>2021-03-12T08:35:30Z</time>
      </trkpt>
      <trkpt lat="44.85034" lon="4.76871">
        <ele>507.23</ele>
        <time>2021-03-12T08:35:49Z</time>
      </trkpt>
      <trkpt lat="44.85034" lon="4.76871">
        <ele>507.23</ele>
        <time>2021-03-12T08:36:17Z</time>
      </trkpt>
      <trkpt lat="44.85034" lon="4.76871">
        <ele>507.23</ele>
        <time>2021-03-12T08:36:43Z</time>
      </trkpt>
      <trkpt lat="44.85034" lon="4.76871">
        <ele>507.71</ele>
        <time>2021-03-12T08:36:44Z</time>
      </trkpt>
      <trkpt lat="44.85033" lon="4.76878">
        <ele>506.75</ele>
        <time>2021-03-12T08:36:48Z</time>
      </trkpt>
      <trkpt lat="44.85032" lon="4.76887">
        <ele>505.79</ele>
        <time>2021-03-12T08:36:52Z</time>
      </trkpt>
      <trkpt lat="44.85032" lon="4.76908">
        <ele>503.39</ele>
        <time>2021-03-12T08:37:03Z</time>
      </trkpt>
      <trkpt lat="44.85027" lon="4.76929">
        <ele>501.95</ele>
        <time>2021-03-12T08:37:15Z</time>
      </trkpt>
      <trkpt lat="44.85024" lon="4.76956">
        <ele>499.06</ele>
        <time>2021-03-12T08:37:28Z</time>
      </trkpt>
      <trkpt lat="44.85024" lon="4.76967">
        <ele>498.1</ele>
        <time>2021-03-12T08:37:36Z</time>
      </trkpt>
      <trkpt lat="44.85021" lon="4.76986">
        <ele>497.14</ele>
        <time>2021-03-12T08:37:44Z</time>
      </trkpt>
      <trkpt lat="44.85021" lon="4.76993">
        <ele>496.66</ele>
        <time>2021-03-12T08:37:47Z</time>
      </trkpt>
      <trkpt lat="44.85021" lon="4.77">
        <ele>496.18</ele>
        <time>2021-03-12T08:37:50Z</time>
      </trkpt>
      <trkpt lat="44.85024" lon="4.77001">
        <ele>496.18</ele>
        <time>2021-03-12T08:38:08Z</time>
      </trkpt>
      <trkpt lat="44.85024" lon="4.77">
        <ele>495.7</ele>
        <time>2021-03-12T08:38:39Z</time>
      </trkpt>
      <trkpt lat="44.85023" lon="4.77004">
        <ele>495.22</ele>
        <time>2021-03-12T08:38:50Z</time>
      </trkpt>
      <trkpt lat="44.85023" lon="4.77015">
        <ele>494.26</ele>
        <time>2021-03-12T08:38:56Z</time>
      </trkpt>
      <trkpt lat="44.85026" lon="4.7703">
        <ele>493.29</ele>
        <time>2021-03-12T08:39:03Z</time>
      </trkpt>
      <trkpt lat="44.85028" lon="4.77045">
        <ele>491.37</ele>
        <time>2021-03-12T08:39:13Z</time>
      </trkpt>
      <trkpt lat="44.85028" lon="4.77061">
        <ele>489.93</ele>
        <time>2021-03-12T08:39:20Z</time>
      </trkpt>
      <trkpt lat="44.8503" lon="4.77077">
        <ele>488.01</ele>
        <time>2021-03-12T08:39:27Z</time>
      </trkpt>
      <trkpt lat="44.85029" lon="4.77081">
        <ele>487.53</ele>
        <time>2021-03-12T08:39:30Z</time>
      </trkpt>
      <trkpt lat="44.85029" lon="4.77084">
        <ele>487.05</ele>
        <time>2021-03-12T08:39:33Z</time>
      </trkpt>
      <trkpt lat="44.85029" lon="4.77091">
        <ele>486.08</ele>
        <time>2021-03-12T08:39:37Z</time>
      </trkpt>
      <trkpt lat="44.85028" lon="4.77105">
        <ele>485.6</ele>
        <time>2021-03-12T08:39:42Z</time>
      </trkpt>
      <trkpt lat="44.85026" lon="4.77126">
        <ele>483.68</ele>
        <time>2021-03-12T08:39:54Z</time>
      </trkpt>
      <trkpt lat="44.85025" lon="4.77151">
        <ele>481.76</ele>
        <time>2021-03-12T08:40:05Z</time>
      </trkpt>
      <trkpt lat="44.85022" lon="4.77173">
        <ele>480.32</ele>
        <time>2021-03-12T08:40:17Z</time>
      </trkpt>
      <trkpt lat="44.85019" lon="4.77198">
        <ele>479.35</ele>
        <time>2021-03-12T08:40:30Z</time>
      </trkpt>
      <trkpt lat="44.85017" lon="4.77224">
        <ele>478.39</ele>
        <time>2021-03-12T08:40:41Z</time>
      </trkpt>
      <trkpt lat="44.85014" lon="4.77236">
        <ele>477.43</ele>
        <time>2021-03-12T08:40:50Z</time>
      </trkpt>
      <trkpt lat="44.85014" lon="4.7724">
        <ele>477.43</ele>
        <time>2021-03-12T08:40:52Z</time>
      </trkpt>
      <trkpt lat="44.85014" lon="4.77244">
        <ele>476.47</ele>
        <time>2021-03-12T08:40:54Z</time>
      </trkpt>
      <trkpt lat="44.85013" lon="4.7725">
        <ele>476.47</ele>
        <time>2021-03-12T08:40:57Z</time>
      </trkpt>
      <trkpt lat="44.85013" lon="4.77278">
        <ele>477.43</ele>
        <time>2021-03-12T08:41:11Z</time>
      </trkpt>
      <trkpt lat="44.85016" lon="4.77279">
        <ele>475.03</ele>
        <time>2021-03-12T08:41:14Z</time>
      </trkpt>
      <trkpt lat="44.85027" lon="4.77268">
        <ele>475.03</ele>
        <time>2021-03-12T08:41:26Z</time>
      </trkpt>
      <trkpt lat="44.85029" lon="4.77263">
        <ele>474.07</ele>
        <time>2021-03-12T08:41:38Z</time>
      </trkpt>
      <trkpt lat="44.85031" lon="4.77261">
        <ele>474.07</ele>
        <time>2021-03-12T08:41:57Z</time>
      </trkpt>
      <trkpt lat="44.85035" lon="4.77251">
        <ele>474.55</ele>
        <time>2021-03-12T08:42:04Z</time>
      </trkpt>
      <trkpt lat="44.85037" lon="4.77246">
        <ele>474.07</ele>
        <time>2021-03-12T08:42:07Z</time>
      </trkpt>
      <trkpt lat="44.85041" lon="4.77236">
        <ele>473.59</ele>
        <time>2021-03-12T08:42:14Z</time>
      </trkpt>
      <trkpt lat="44.85046" lon="4.77224">
        <ele>473.11</ele>
        <time>2021-03-12T08:42:23Z</time>
      </trkpt>
      <trkpt lat="44.85052" lon="4.7721">
        <ele>473.59</ele>
        <time>2021-03-12T08:42:31Z</time>
      </trkpt>
      <trkpt lat="44.85056" lon="4.77203">
        <ele>473.11</ele>
        <time>2021-03-12T08:42:38Z</time>
      </trkpt>
      <trkpt lat="44.85063" lon="4.77189">
        <ele>472.14</ele>
        <time>2021-03-12T08:42:46Z</time>
      </trkpt>
      <trkpt lat="44.85072" lon="4.77171">
        <ele>472.14</ele>
        <time>2021-03-12T08:42:59Z</time>
      </trkpt>
      <trkpt lat="44.85081" lon="4.77153">
        <ele>471.66</ele>
        <time>2021-03-12T08:43:09Z</time>
      </trkpt>
      <trkpt lat="44.85085" lon="4.77144">
        <ele>472.14</ele>
        <time>2021-03-12T08:43:13Z</time>
      </trkpt>
      <trkpt lat="44.8509" lon="4.77129">
        <ele>471.18</ele>
        <time>2021-03-12T08:43:23Z</time>
      </trkpt>
      <trkpt lat="44.85091" lon="4.77124">
        <ele>470.7</ele>
        <time>2021-03-12T08:43:41Z</time>
      </trkpt>
      <trkpt lat="44.85092" lon="4.7712">
        <ele>471.18</ele>
        <time>2021-03-12T08:43:49Z</time>
      </trkpt>
      <trkpt lat="44.85092" lon="4.77118">
        <ele>471.18</ele>
        <time>2021-03-12T08:43:51Z</time>
      </trkpt>
      <trkpt lat="44.85093" lon="4.77098">
        <ele>470.7</ele>
        <time>2021-03-12T08:44:03Z</time>
      </trkpt>
      <trkpt lat="44.85092" lon="4.77088">
        <ele>470.7</ele>
        <time>2021-03-12T08:44:08Z</time>
      </trkpt>
      <trkpt lat="44.85092" lon="4.7707">
        <ele>470.22</ele>
        <time>2021-03-12T08:44:16Z</time>
      </trkpt>
      <trkpt lat="44.8509" lon="4.77061">
        <ele>470.22</ele>
        <time>2021-03-12T08:44:20Z</time>
      </trkpt>
      <trkpt lat="44.85088" lon="4.7704">
        <ele>469.74</ele>
        <time>2021-03-12T08:44:34Z</time>
      </trkpt>
      <trkpt lat="44.85089" lon="4.77035">
        <ele>469.74</ele>
        <time>2021-03-12T08:44:36Z</time>
      </trkpt>
      <trkpt lat="44.85091" lon="4.77027">
        <ele>469.26</ele>
        <time>2021-03-12T08:44:40Z</time>
      </trkpt>
      <trkpt lat="44.85094" lon="4.77017">
        <ele>469.26</ele>
        <time>2021-03-12T08:44:45Z</time>
      </trkpt>
      <trkpt lat="44.85097" lon="4.77002">
        <ele>468.78</ele>
        <time>2021-03-12T08:44:51Z</time>
      </trkpt>
      <trkpt lat="44.85101" lon="4.76973">
        <ele>467.82</ele>
        <time>2021-03-12T08:45:04Z</time>
      </trkpt>
      <trkpt lat="44.85106" lon="4.76965">
        <ele>467.82</ele>
        <time>2021-03-12T08:45:08Z</time>
      </trkpt>
      <trkpt lat="44.85114" lon="4.76953">
        <ele>467.82</ele>
        <time>2021-03-12T08:45:14Z</time>
      </trkpt>
      <trkpt lat="44.85132" lon="4.76944">
        <ele>467.34</ele>
        <time>2021-03-12T08:45:27Z</time>
      </trkpt>
      <trkpt lat="44.85155" lon="4.76935">
        <ele>466.86</ele>
        <time>2021-03-12T08:45:41Z</time>
      </trkpt>
      <trkpt lat="44.85161" lon="4.7692">
        <ele>466.38</ele>
        <time>2021-03-12T08:45:48Z</time>
      </trkpt>
      <trkpt lat="44.85164" lon="4.76904">
        <ele>466.38</ele>
        <time>2021-03-12T08:45:56Z</time>
      </trkpt>
      <trkpt lat="44.85172" lon="4.76874">
        <ele>465.42</ele>
        <time>2021-03-12T08:46:11Z</time>
      </trkpt>
      <trkpt lat="44.85176" lon="4.7686">
        <ele>465.42</ele>
        <time>2021-03-12T08:46:20Z</time>
      </trkpt>
      <trkpt lat="44.85177" lon="4.76841">
        <ele>464.93</ele>
        <time>2021-03-12T08:46:30Z</time>
      </trkpt>
      <trkpt lat="44.85168" lon="4.76815">
        <ele>463.97</ele>
        <time>2021-03-12T08:46:45Z</time>
      </trkpt>
      <trkpt lat="44.85167" lon="4.76813">
        <ele>463.97</ele>
        <time>2021-03-12T08:46:46Z</time>
      </trkpt>
      <trkpt lat="44.85162" lon="4.76804">
        <ele>463.49</ele>
        <time>2021-03-12T08:46:53Z</time>
      </trkpt>
      <trkpt lat="44.85176" lon="4.76781">
        <ele>463.49</ele>
        <time>2021-03-12T08:47:09Z</time>
      </trkpt>
      <trkpt lat="44.85194" lon="4.76756">
        <ele>462.05</ele>
        <time>2021-03-12T08:47:23Z</time>
      </trkpt>
      <trkpt lat="44.85213" lon="4.76765">
        <ele>462.05</ele>
        <time>2021-03-12T08:47:36Z</time>
      </trkpt>
      <trkpt lat="44.85216" lon="4.7677">
        <ele>461.57</ele>
        <time>2021-03-12T08:47:39Z</time>
      </trkpt>
      <trkpt lat="44.85235" lon="4.76786">
        <ele>461.09</ele>
        <time>2021-03-12T08:47:52Z</time>
      </trkpt>
      <trkpt lat="44.85256" lon="4.76779">
        <ele>460.61</ele>
        <time>2021-03-12T08:48:07Z</time>
      </trkpt>
      <trkpt lat="44.85269" lon="4.76773">
        <ele>460.61</ele>
        <time>2021-03-12T08:48:18Z</time>
      </trkpt>
      <trkpt lat="44.85289" lon="4.76767">
        <ele>460.13</ele>
        <time>2021-03-12T08:48:32Z</time>
      </trkpt>
      <trkpt lat="44.85303" lon="4.76775">
        <ele>460.13</ele>
        <time>2021-03-12T08:48:42Z</time>
      </trkpt>
      <trkpt lat="44.85302" lon="4.76783">
        <ele>459.65</ele>
        <time>2021-03-12T08:48:47Z</time>
      </trkpt>
      <trkpt lat="44.85292" lon="4.76805">
        <ele>459.17</ele>
        <time>2021-03-12T08:49:03Z</time>
      </trkpt>
      <trkpt lat="44.85286" lon="4.76826">
        <ele>458.69</ele>
        <time>2021-03-12T08:49:13Z</time>
      </trkpt>
      <trkpt lat="44.85286" lon="4.76833">
        <ele>458.69</ele>
        <time>2021-03-12T08:49:16Z</time>
      </trkpt>
      <trkpt lat="44.85285" lon="4.76842">
        <ele>458.69</ele>
        <time>2021-03-12T08:49:20Z</time>
      </trkpt>
      <trkpt lat="44.85284" lon="4.76847">
        <ele>458.21</ele>
        <time>2021-03-12T08:49:22Z</time>
      </trkpt>
      <trkpt lat="44.85283" lon="4.76853">
        <ele>458.21</ele>
        <time>2021-03-12T08:49:25Z</time>
      </trkpt>
      <trkpt lat="44.85283" lon="4.76883">
        <ele>457.72</ele>
        <time>2021-03-12T08:49:38Z</time>
      </trkpt>
      <trkpt lat="44.85285" lon="4.76894">
        <ele>457.24</ele>
        <time>2021-03-12T08:49:43Z</time>
      </trkpt>
      <trkpt lat="44.85291" lon="4.76924">
        <ele>456.76</ele>
        <time>2021-03-12T08:49:58Z</time>
      </trkpt>
      <trkpt lat="44.85295" lon="4.76946">
        <ele>456.76</ele>
        <time>2021-03-12T08:50:09Z</time>
      </trkpt>
      <trkpt lat="44.85296" lon="4.76951">
        <ele>456.76</ele>
        <time>2021-03-12T08:50:11Z</time>
      </trkpt>
      <trkpt lat="44.853" lon="4.76975">
        <ele>456.28</ele>
        <time>2021-03-12T08:50:22Z</time>
      </trkpt>
      <trkpt lat="44.8531" lon="4.76998">
        <ele>455.8</ele>
        <time>2021-03-12T08:50:34Z</time>
      </trkpt>
      <trkpt lat="44.85325" lon="4.77021">
        <ele>455.32</ele>
        <time>2021-03-12T08:50:48Z</time>
      </trkpt>
      <trkpt lat="44.85339" lon="4.77039">
        <ele>455.32</ele>
        <time>2021-03-12T08:50:58Z</time>
      </trkpt>
      <trkpt lat="44.85352" lon="4.77049">
        <ele>454.36</ele>
        <time>2021-03-12T08:51:09Z</time>
      </trkpt>
      <trkpt lat="44.85369" lon="4.77044">
        <ele>453.88</ele>
        <time>2021-03-12T08:51:23Z</time>
      </trkpt>
      <trkpt lat="44.85383" lon="4.77033">
        <ele>453.4</ele>
        <time>2021-03-12T08:51:34Z</time>
      </trkpt>
      <trkpt lat="44.85388" lon="4.7703">
        <ele>453.4</ele>
        <time>2021-03-12T08:51:38Z</time>
      </trkpt>
      <trkpt lat="44.85404" lon="4.77039">
        <ele>452.92</ele>
        <time>2021-03-12T08:51:52Z</time>
      </trkpt>
      <trkpt lat="44.85415" lon="4.7706">
        <ele>452.44</ele>
        <time>2021-03-12T08:52:05Z</time>
      </trkpt>
      <trkpt lat="44.85415" lon="4.77074">
        <ele>452.44</ele>
        <time>2021-03-12T08:52:11Z</time>
      </trkpt>
      <trkpt lat="44.85417" lon="4.77108">
        <ele>451.96</ele>
        <time>2021-03-12T08:52:26Z</time>
      </trkpt>
      <trkpt lat="44.85415" lon="4.77137">
        <ele>451</ele>
        <time>2021-03-12T08:52:40Z</time>
      </trkpt>
      <trkpt lat="44.85415" lon="4.77165">
        <ele>451.48</ele>
        <time>2021-03-12T08:52:54Z</time>
      </trkpt>
      <trkpt lat="44.85415" lon="4.77193">
        <ele>450.52</ele>
        <time>2021-03-12T08:53:07Z</time>
      </trkpt>
      <trkpt lat="44.85415" lon="4.77198">
        <ele>450.03</ele>
        <time>2021-03-12T08:53:16Z</time>
      </trkpt>
      <trkpt lat="44.85417" lon="4.77203">
        <ele>450.03</ele>
        <time>2021-03-12T08:53:19Z</time>
      </trkpt>
      <trkpt lat="44.85427" lon="4.77229">
        <ele>449.07</ele>
        <time>2021-03-12T08:53:33Z</time>
      </trkpt>
      <trkpt lat="44.85428" lon="4.77234">
        <ele>449.07</ele>
        <time>2021-03-12T08:53:36Z</time>
      </trkpt>
      <trkpt lat="44.85433" lon="4.77252">
        <ele>449.07</ele>
        <time>2021-03-12T08:53:44Z</time>
      </trkpt>
      <trkpt lat="44.85436" lon="4.77275">
        <ele>448.59</ele>
        <time>2021-03-12T08:53:55Z</time>
      </trkpt>
      <trkpt lat="44.85437" lon="4.77286">
        <ele>448.59</ele>
        <time>2021-03-12T08:54:05Z</time>
      </trkpt>
      <trkpt lat="44.85436" lon="4.77298">
        <ele>448.59</ele>
        <time>2021-03-12T08:54:10Z</time>
      </trkpt>
      <trkpt lat="44.85435" lon="4.77318">
        <ele>448.59</ele>
        <time>2021-03-12T08:54:21Z</time>
      </trkpt>
      <trkpt lat="44.85434" lon="4.77322">
        <ele>448.11</ele>
        <time>2021-03-12T08:54:23Z</time>
      </trkpt>
      <trkpt lat="44.85433" lon="4.77352">
        <ele>449.07</ele>
        <time>2021-03-12T08:54:35Z</time>
      </trkpt>
      <trkpt lat="44.85439" lon="4.77378">
        <ele>449.55</ele>
        <time>2021-03-12T08:54:48Z</time>
      </trkpt>
      <trkpt lat="44.8544" lon="4.7738">
        <ele>449.55</ele>
        <time>2021-03-12T08:54:49Z</time>
      </trkpt>
      <trkpt lat="44.85449" lon="4.77395">
        <ele>449.55</ele>
        <time>2021-03-12T08:55:00Z</time>
      </trkpt>
      <trkpt lat="44.85461" lon="4.77421">
        <ele>450.03</ele>
        <time>2021-03-12T08:55:15Z</time>
      </trkpt>
      <trkpt lat="44.85474" lon="4.77432">
        <ele>450.03</ele>
        <time>2021-03-12T08:55:24Z</time>
      </trkpt>
      <trkpt lat="44.8549" lon="4.77442">
        <ele>450.52</ele>
        <time>2021-03-12T08:55:38Z</time>
      </trkpt>
      <trkpt lat="44.85513" lon="4.77446">
        <ele>451</ele>
        <time>2021-03-12T08:55:53Z</time>
      </trkpt>
      <trkpt lat="44.85528" lon="4.77439">
        <ele>451.48</ele>
        <time>2021-03-12T08:56:05Z</time>
      </trkpt>
      <trkpt lat="44.85543" lon="4.77426">
        <ele>451.48</ele>
        <time>2021-03-12T08:56:17Z</time>
      </trkpt>
      <trkpt lat="44.85557" lon="4.77412">
        <ele>451.96</ele>
        <time>2021-03-12T08:56:31Z</time>
      </trkpt>
      <trkpt lat="44.85559" lon="4.77408">
        <ele>451.96</ele>
        <time>2021-03-12T08:56:34Z</time>
      </trkpt>
      <trkpt lat="44.85565" lon="4.77394">
        <ele>452.44</ele>
        <time>2021-03-12T08:56:43Z</time>
      </trkpt>
      <trkpt lat="44.85569" lon="4.77388">
        <ele>452.44</ele>
        <time>2021-03-12T08:56:46Z</time>
      </trkpt>
      <trkpt lat="44.85589" lon="4.77368">
        <ele>452.44</ele>
        <time>2021-03-12T08:57:00Z</time>
      </trkpt>
      <trkpt lat="44.85605" lon="4.77368">
        <ele>453.4</ele>
        <time>2021-03-12T08:57:12Z</time>
      </trkpt>
      <trkpt lat="44.85629" lon="4.77376">
        <ele>453.4</ele>
        <time>2021-03-12T08:57:27Z</time>
      </trkpt>
      <trkpt lat="44.85634" lon="4.77378">
        <ele>453.88</ele>
        <time>2021-03-12T08:57:31Z</time>
      </trkpt>
      <trkpt lat="44.85647" lon="4.77385">
        <ele>453.88</ele>
        <time>2021-03-12T08:57:43Z</time>
      </trkpt>
      <trkpt lat="44.85654" lon="4.77386">
        <ele>453.88</ele>
        <time>2021-03-12T08:57:48Z</time>
      </trkpt>
      <trkpt lat="44.85666" lon="4.77391">
        <ele>453.88</ele>
        <time>2021-03-12T08:57:57Z</time>
      </trkpt>
      <trkpt lat="44.85682" lon="4.77385">
        <ele>454.36</ele>
        <time>2021-03-12T08:58:09Z</time>
      </trkpt>
      <trkpt lat="44.85696" lon="4.77372">
        <ele>454.84</ele>
        <time>2021-03-12T08:58:20Z</time>
      </trkpt>
      <trkpt lat="44.85703" lon="4.77352">
        <ele>455.32</ele>
        <time>2021-03-12T08:58:31Z</time>
      </trkpt>
      <trkpt lat="44.85705" lon="4.77322">
        <ele>455.32</ele>
        <time>2021-03-12T08:58:43Z</time>
      </trkpt>
      <trkpt lat="44.85702" lon="4.77293">
        <ele>455.8</ele>
        <time>2021-03-12T08:58:58Z</time>
      </trkpt>
      <trkpt lat="44.85702" lon="4.77277">
        <ele>456.28</ele>
        <time>2021-03-12T08:59:05Z</time>
      </trkpt>
      <trkpt lat="44.857" lon="4.7726">
        <ele>456.28</ele>
        <time>2021-03-12T08:59:14Z</time>
      </trkpt>
      <trkpt lat="44.85704" lon="4.77249">
        <ele>456.76</ele>
        <time>2021-03-12T08:59:23Z</time>
      </trkpt>
      <trkpt lat="44.85733" lon="4.77234">
        <ele>456.76</ele>
        <time>2021-03-12T08:59:42Z</time>
      </trkpt>
      <trkpt lat="44.85755" lon="4.77216">
        <ele>457.24</ele>
        <time>2021-03-12T08:59:57Z</time>
      </trkpt>
      <trkpt lat="44.85757" lon="4.77211">
        <ele>457.24</ele>
        <time>2021-03-12T09:00:00Z</time>
      </trkpt>
      <trkpt lat="44.85767" lon="4.77183">
        <ele>457.72</ele>
        <time>2021-03-12T09:00:13Z</time>
      </trkpt>
      <trkpt lat="44.85768" lon="4.7717">
        <ele>457.72</ele>
        <time>2021-03-12T09:00:20Z</time>
      </trkpt>
      <trkpt lat="44.8577" lon="4.7716">
        <ele>458.21</ele>
        <time>2021-03-12T09:00:26Z</time>
      </trkpt>
      <trkpt lat="44.85777" lon="4.7715">
        <ele>458.69</ele>
        <time>2021-03-12T09:00:33Z</time>
      </trkpt>
      <trkpt lat="44.8579" lon="4.77152">
        <ele>459.17</ele>
        <time>2021-03-12T09:00:48Z</time>
      </trkpt>
      <trkpt lat="44.85807" lon="4.77164">
        <ele>459.17</ele>
        <time>2021-03-12T09:00:59Z</time>
      </trkpt>
      <trkpt lat="44.85808" lon="4.77165">
        <ele>459.17</ele>
        <time>2021-03-12T09:01:00Z</time>
      </trkpt>
      <trkpt lat="44.8581" lon="4.77168">
        <ele>459.17</ele>
        <time>2021-03-12T09:01:14Z</time>
      </trkpt>
      <trkpt lat="44.8581" lon="4.77167">
        <ele>458.69</ele>
        <time>2021-03-12T09:01:24Z</time>
      </trkpt>
      <trkpt lat="44.85808" lon="4.77164">
        <ele>458.69</ele>
        <time>2021-03-12T09:01:39Z</time>
      </trkpt>
      <trkpt lat="44.85809" lon="4.77164">
        <ele>458.69</ele>
        <time>2021-03-12T09:01:40Z</time>
      </trkpt>
      <trkpt lat="44.85818" lon="4.77174">
        <ele>458.69</ele>
        <time>2021-03-12T09:01:48Z</time>
      </trkpt>
      <trkpt lat="44.8582" lon="4.77176">
        <ele>458.69</ele>
        <time>2021-03-12T09:01:51Z</time>
      </trkpt>
      <trkpt lat="44.85825" lon="4.77188">
        <ele>459.17</ele>
        <time>2021-03-12T09:02:00Z</time>
      </trkpt>
      <trkpt lat="44.85838" lon="4.77204">
        <ele>459.17</ele>
        <time>2021-03-12T09:02:13Z</time>
      </trkpt>
      <trkpt lat="44.8585" lon="4.7721">
        <ele>459.65</ele>
        <time>2021-03-12T09:02:24Z</time>
      </trkpt>
      <trkpt lat="44.8586" lon="4.77205">
        <ele>460.13</ele>
        <time>2021-03-12T09:02:36Z</time>
      </trkpt>
      <trkpt lat="44.85861" lon="4.77205">
        <ele>447.15</ele>
        <time>2021-03-12T09:02:37Z</time>
      </trkpt>
      <trkpt lat="44.85862" lon="4.77205">
        <ele>455.8</ele>
        <time>2021-03-12T09:02:38Z</time>
      </trkpt>
      <trkpt lat="44.85862" lon="4.77205">
        <ele>473.59</ele>
        <time>2021-03-12T09:02:39Z</time>
      </trkpt>
      <trkpt lat="44.85863" lon="4.77205">
        <ele>461.09</ele>
        <time>2021-03-12T09:02:40Z</time>
      </trkpt>
      <trkpt lat="44.85863" lon="4.77205">
        <ele>456.76</ele>
        <time>2021-03-12T09:02:41Z</time>
      </trkpt>
      <trkpt lat="44.85864" lon="4.77205">
        <ele>449.07</ele>
        <time>2021-03-12T09:02:42Z</time>
      </trkpt>
      <trkpt lat="44.85864" lon="4.77205">
        <ele>470.22</ele>
        <time>2021-03-12T09:02:43Z</time>
      </trkpt>
      <trkpt lat="44.85864" lon="4.77205">
        <ele>458.69</ele>
        <time>2021-03-12T09:02:44Z</time>
      </trkpt>
      <trkpt lat="44.85865" lon="4.77206">
        <ele>457.24</ele>
        <time>2021-03-12T09:02:54Z</time>
      </trkpt>
      <trkpt lat="44.8586" lon="4.77196">
        <ele>461.09</ele>
        <time>2021-03-12T09:03:03Z</time>
      </trkpt>
      <trkpt lat="44.85866" lon="4.77183">
        <ele>463.01</ele>
        <time>2021-03-12T09:03:15Z</time>
      </trkpt>
      <trkpt lat="44.85872" lon="4.7717">
        <ele>464.93</ele>
        <time>2021-03-12T09:03:27Z</time>
      </trkpt>
      <trkpt lat="44.85871" lon="4.77168">
        <ele>465.42</ele>
        <time>2021-03-12T09:03:29Z</time>
      </trkpt>
      <trkpt lat="44.85871" lon="4.7715">
        <ele>468.78</ele>
        <time>2021-03-12T09:03:44Z</time>
      </trkpt>
      <trkpt lat="44.8587" lon="4.77135">
        <ele>472.14</ele>
        <time>2021-03-12T09:03:55Z</time>
      </trkpt>
      <trkpt lat="44.85871" lon="4.77124">
        <ele>473.11</ele>
        <time>2021-03-12T09:04:01Z</time>
      </trkpt>
      <trkpt lat="44.85871" lon="4.77109">
        <ele>475.99</ele>
        <time>2021-03-12T09:04:14Z</time>
      </trkpt>
      <trkpt lat="44.85868" lon="4.77093">
        <ele>478.87</ele>
        <time>2021-03-12T09:04:27Z</time>
      </trkpt>
      <trkpt lat="44.85868" lon="4.77082">
        <ele>480.8</ele>
        <time>2021-03-12T09:04:36Z</time>
      </trkpt>
      <trkpt lat="44.85866" lon="4.7707">
        <ele>483.68</ele>
        <time>2021-03-12T09:04:51Z</time>
      </trkpt>
      <trkpt lat="44.8586" lon="4.77046">
        <ele>486.08</ele>
        <time>2021-03-12T09:05:04Z</time>
      </trkpt>
      <trkpt lat="44.85853" lon="4.77029">
        <ele>489.45</ele>
        <time>2021-03-12T09:05:18Z</time>
      </trkpt>
      <trkpt lat="44.8585" lon="4.77026">
        <ele>490.41</ele>
        <time>2021-03-12T09:05:21Z</time>
      </trkpt>
      <trkpt lat="44.85844" lon="4.77017">
        <ele>492.33</ele>
        <time>2021-03-12T09:05:29Z</time>
      </trkpt>
      <trkpt lat="44.8584" lon="4.77009">
        <ele>494.26</ele>
        <time>2021-03-12T09:05:37Z</time>
      </trkpt>
      <trkpt lat="44.85832" lon="4.77005">
        <ele>496.18</ele>
        <time>2021-03-12T09:05:48Z</time>
      </trkpt>
      <trkpt lat="44.85824" lon="4.76998">
        <ele>498.58</ele>
        <time>2021-03-12T09:06:03Z</time>
      </trkpt>
      <trkpt lat="44.85804" lon="4.76986">
        <ele>501.46</ele>
        <time>2021-03-12T09:06:19Z</time>
      </trkpt>
      <trkpt lat="44.85801" lon="4.76984">
        <ele>503.39</ele>
        <time>2021-03-12T09:06:41Z</time>
      </trkpt>
      <trkpt lat="44.85781" lon="4.76978">
        <ele>506.27</ele>
        <time>2021-03-12T09:06:58Z</time>
      </trkpt>
      <trkpt lat="44.85769" lon="4.76973">
        <ele>509.64</ele>
        <time>2021-03-12T09:07:16Z</time>
      </trkpt>
      <trkpt lat="44.85769" lon="4.76973">
        <ele>513</ele>
        <time>2021-03-12T09:07:34Z</time>
      </trkpt>
      <trkpt lat="44.8575" lon="4.76961">
        <ele>515.88</ele>
        <time>2021-03-12T09:07:49Z</time>
      </trkpt>
      <trkpt lat="44.85724" lon="4.76943">
        <ele>519.25</ele>
        <time>2021-03-12T09:08:05Z</time>
      </trkpt>
      <trkpt lat="44.85702" lon="4.7693">
        <ele>522.13</ele>
        <time>2021-03-12T09:08:20Z</time>
      </trkpt>
      <trkpt lat="44.85683" lon="4.76922">
        <ele>525.02</ele>
        <time>2021-03-12T09:08:36Z</time>
      </trkpt>
      <trkpt lat="44.85667" lon="4.76913">
        <ele>527.9</ele>
        <time>2021-03-12T09:08:50Z</time>
      </trkpt>
      <trkpt lat="44.85658" lon="4.76904">
        <ele>529.82</ele>
        <time>2021-03-12T09:09:07Z</time>
      </trkpt>
      <trkpt lat="44.85647" lon="4.76895">
        <ele>533.19</ele>
        <time>2021-03-12T09:09:26Z</time>
      </trkpt>
      <trkpt lat="44.85632" lon="4.76879">
        <ele>535.11</ele>
        <time>2021-03-12T09:09:42Z</time>
      </trkpt>
      <trkpt lat="44.85621" lon="4.76867">
        <ele>537.99</ele>
        <time>2021-03-12T09:09:56Z</time>
      </trkpt>
      <trkpt lat="44.8561" lon="4.76854">
        <ele>540.4</ele>
        <time>2021-03-12T09:10:10Z</time>
      </trkpt>
      <trkpt lat="44.856" lon="4.76843">
        <ele>542.8</ele>
        <time>2021-03-12T09:10:24Z</time>
      </trkpt>
      <trkpt lat="44.85599" lon="4.76841">
        <ele>543.76</ele>
        <time>2021-03-12T09:10:26Z</time>
      </trkpt>
      <trkpt lat="44.85597" lon="4.76835">
        <ele>544.72</ele>
        <time>2021-03-12T09:10:31Z</time>
      </trkpt>
      <trkpt lat="44.85593" lon="4.76818">
        <ele>547.61</ele>
        <time>2021-03-12T09:10:45Z</time>
      </trkpt>
      <trkpt lat="44.85592" lon="4.7681">
        <ele>549.53</ele>
        <time>2021-03-12T09:10:54Z</time>
      </trkpt>
      <trkpt lat="44.85592" lon="4.76804">
        <ele>550.01</ele>
        <time>2021-03-12T09:10:58Z</time>
      </trkpt>
      <trkpt lat="44.85591" lon="4.76786">
        <ele>552.9</ele>
        <time>2021-03-12T09:11:12Z</time>
      </trkpt>
      <trkpt lat="44.8559" lon="4.76769">
        <ele>556.26</ele>
        <time>2021-03-12T09:11:27Z</time>
      </trkpt>
      <trkpt lat="44.8559" lon="4.76765">
        <ele>557.22</ele>
        <time>2021-03-12T09:11:31Z</time>
      </trkpt>
      <trkpt lat="44.85589" lon="4.7676">
        <ele>557.7</ele>
        <time>2021-03-12T09:11:35Z</time>
      </trkpt>
      <trkpt lat="44.85589" lon="4.76742">
        <ele>561.07</ele>
        <time>2021-03-12T09:11:48Z</time>
      </trkpt>
      <trkpt lat="44.85589" lon="4.76726">
        <ele>563.95</ele>
        <time>2021-03-12T09:12:01Z</time>
      </trkpt>
      <trkpt lat="44.85586" lon="4.7672">
        <ele>565.39</ele>
        <time>2021-03-12T09:12:07Z</time>
      </trkpt>
      <trkpt lat="44.85583" lon="4.76704">
        <ele>569.24</ele>
        <time>2021-03-12T09:12:19Z</time>
      </trkpt>
      <trkpt lat="44.85578" lon="4.76689">
        <ele>571.64</ele>
        <time>2021-03-12T09:12:32Z</time>
      </trkpt>
      <trkpt lat="44.85577" lon="4.76684">
        <ele>572.12</ele>
        <time>2021-03-12T09:12:35Z</time>
      </trkpt>
      <trkpt lat="44.85576" lon="4.76663">
        <ele>574.53</ele>
        <time>2021-03-12T09:12:51Z</time>
      </trkpt>
      <trkpt lat="44.85575" lon="4.76654">
        <ele>575.01</ele>
        <time>2021-03-12T09:12:55Z</time>
      </trkpt>
      <trkpt lat="44.85573" lon="4.76633">
        <ele>575.97</ele>
        <time>2021-03-12T09:13:05Z</time>
      </trkpt>
      <trkpt lat="44.85566" lon="4.76612">
        <ele>576.45</ele>
        <time>2021-03-12T09:13:18Z</time>
      </trkpt>
      <trkpt lat="44.85563" lon="4.76603">
        <ele>577.41</ele>
        <time>2021-03-12T09:13:24Z</time>
      </trkpt>
      <trkpt lat="44.85561" lon="4.76575">
        <ele>579.81</ele>
        <time>2021-03-12T09:13:40Z</time>
      </trkpt>
      <trkpt lat="44.85559" lon="4.76559">
        <ele>581.73</ele>
        <time>2021-03-12T09:13:54Z</time>
      </trkpt>
      <trkpt lat="44.85548" lon="4.76529">
        <ele>584.14</ele>
        <time>2021-03-12T09:14:10Z</time>
      </trkpt>
      <trkpt lat="44.85541" lon="4.76511">
        <ele>585.58</ele>
        <time>2021-03-12T09:14:23Z</time>
      </trkpt>
      <trkpt lat="44.85535" lon="4.7649">
        <ele>588.46</ele>
        <time>2021-03-12T09:14:37Z</time>
      </trkpt>
      <trkpt lat="44.85529" lon="4.7648">
        <ele>581.73</ele>
        <time>2021-03-12T09:14:44Z</time>
      </trkpt>
      <trkpt lat="44.85529" lon="4.76479">
        <ele>590.39</ele>
        <time>2021-03-12T09:14:45Z</time>
      </trkpt>
      <trkpt lat="44.85529" lon="4.76479">
        <ele>601.44</ele>
        <time>2021-03-12T09:14:46Z</time>
      </trkpt>
      <trkpt lat="44.85529" lon="4.76479">
        <ele>589.43</ele>
        <time>2021-03-12T09:14:47Z</time>
      </trkpt>
      <trkpt lat="44.85529" lon="4.76479">
        <ele>581.73</ele>
        <time>2021-03-12T09:14:50Z</time>
      </trkpt>
      <trkpt lat="44.85529" lon="4.76479">
        <ele>599.04</ele>
        <time>2021-03-12T09:14:51Z</time>
      </trkpt>
      <trkpt lat="44.85529" lon="4.76479">
        <ele>591.83</ele>
        <time>2021-03-12T09:14:52Z</time>
      </trkpt>
      <trkpt lat="44.85529" lon="4.76479">
        <ele>579.81</ele>
        <time>2021-03-12T09:14:54Z</time>
      </trkpt>
      <trkpt lat="44.85529" lon="4.76479">
        <ele>599.04</ele>
        <time>2021-03-12T09:14:55Z</time>
      </trkpt>
      <trkpt lat="44.85529" lon="4.76479">
        <ele>589.91</ele>
        <time>2021-03-12T09:14:56Z</time>
      </trkpt>
      <trkpt lat="44.85529" lon="4.76479">
        <ele>576.45</ele>
        <time>2021-03-12T09:14:57Z</time>
      </trkpt>
      <trkpt lat="44.85529" lon="4.76479">
        <ele>598.08</ele>
        <time>2021-03-12T09:14:58Z</time>
      </trkpt>
      <trkpt lat="44.85529" lon="4.76479">
        <ele>589.43</ele>
        <time>2021-03-12T09:14:59Z</time>
      </trkpt>
      <trkpt lat="44.8553" lon="4.76478">
        <ele>601.92</ele>
        <time>2021-03-12T09:15:02Z</time>
      </trkpt>
      <trkpt lat="44.85531" lon="4.76477">
        <ele>590.39</ele>
        <time>2021-03-12T09:15:03Z</time>
      </trkpt>
      <trkpt lat="44.85532" lon="4.76475">
        <ele>580.29</ele>
        <time>2021-03-12T09:15:05Z</time>
      </trkpt>
      <trkpt lat="44.85532" lon="4.76474">
        <ele>596.64</ele>
        <time>2021-03-12T09:15:06Z</time>
      </trkpt>
      <trkpt lat="44.85532" lon="4.76472">
        <ele>590.39</ele>
        <time>2021-03-12T09:15:07Z</time>
      </trkpt>
      <trkpt lat="44.85534" lon="4.76462">
        <ele>582.7</ele>
        <time>2021-03-12T09:15:14Z</time>
      </trkpt>
      <trkpt lat="44.85534" lon="4.76461">
        <ele>596.64</ele>
        <time>2021-03-12T09:15:15Z</time>
      </trkpt>
      <trkpt lat="44.85535" lon="4.76459">
        <ele>579.33</ele>
        <time>2021-03-12T09:15:16Z</time>
      </trkpt>
      <trkpt lat="44.85536" lon="4.76456">
        <ele>603.85</ele>
        <time>2021-03-12T09:15:18Z</time>
      </trkpt>
      <trkpt lat="44.85536" lon="4.76454">
        <ele>581.73</ele>
        <time>2021-03-12T09:15:19Z</time>
      </trkpt>
      <trkpt lat="44.85537" lon="4.76453">
        <ele>593.75</ele>
        <time>2021-03-12T09:15:20Z</time>
      </trkpt>
      <trkpt lat="44.85537" lon="4.76451">
        <ele>597.6</ele>
        <time>2021-03-12T09:15:21Z</time>
      </trkpt>
      <trkpt lat="44.85537" lon="4.7645">
        <ele>596.64</ele>
        <time>2021-03-12T09:15:22Z</time>
      </trkpt>
      <trkpt lat="44.85538" lon="4.76448">
        <ele>592.79</ele>
        <time>2021-03-12T09:15:23Z</time>
      </trkpt>
      <trkpt lat="44.85539" lon="4.76445">
        <ele>591.35</ele>
        <time>2021-03-12T09:15:25Z</time>
      </trkpt>
      <trkpt lat="44.85543" lon="4.76431">
        <ele>587.02</ele>
        <time>2021-03-12T09:15:32Z</time>
      </trkpt>
      <trkpt lat="44.85543" lon="4.76429">
        <ele>591.35</ele>
        <time>2021-03-12T09:15:33Z</time>
      </trkpt>
      <trkpt lat="44.85544" lon="4.76427">
        <ele>598.56</ele>
        <time>2021-03-12T09:15:34Z</time>
      </trkpt>
      <trkpt lat="44.85545" lon="4.76424">
        <ele>587.5</ele>
        <time>2021-03-12T09:15:35Z</time>
      </trkpt>
      <trkpt lat="44.85545" lon="4.76422">
        <ele>594.71</ele>
        <time>2021-03-12T09:15:36Z</time>
      </trkpt>
      <trkpt lat="44.85552" lon="4.76407">
        <ele>593.27</ele>
        <time>2021-03-12T09:15:47Z</time>
      </trkpt>
      <trkpt lat="44.85559" lon="4.76392">
        <ele>593.75</ele>
        <time>2021-03-12T09:15:58Z</time>
      </trkpt>
      <trkpt lat="44.85572" lon="4.76368">
        <ele>593.75</ele>
        <time>2021-03-12T09:16:13Z</time>
      </trkpt>
      <trkpt lat="44.8558" lon="4.76352">
        <ele>595.19</ele>
        <time>2021-03-12T09:16:23Z</time>
      </trkpt>
      <trkpt lat="44.85588" lon="4.76335">
        <ele>596.15</ele>
        <time>2021-03-12T09:16:35Z</time>
      </trkpt>
      <trkpt lat="44.85588" lon="4.76333">
        <ele>596.15</ele>
        <time>2021-03-12T09:16:36Z</time>
      </trkpt>
      <trkpt lat="44.85598" lon="4.76306">
        <ele>599.04</ele>
        <time>2021-03-12T09:16:52Z</time>
      </trkpt>
      <trkpt lat="44.85606" lon="4.76284">
        <ele>600.96</ele>
        <time>2021-03-12T09:17:07Z</time>
      </trkpt>
      <trkpt lat="44.85617" lon="4.76263">
        <ele>601.92</ele>
        <time>2021-03-12T09:17:19Z</time>
      </trkpt>
      <trkpt lat="44.85619" lon="4.76259">
        <ele>601.92</ele>
        <time>2021-03-12T09:17:25Z</time>
      </trkpt>
      <trkpt lat="44.85623" lon="4.76253">
        <ele>602.4</ele>
        <time>2021-03-12T09:17:29Z</time>
      </trkpt>
      <trkpt lat="44.85631" lon="4.76238">
        <ele>602.88</ele>
        <time>2021-03-12T09:17:40Z</time>
      </trkpt>
      <trkpt lat="44.85633" lon="4.76233">
        <ele>602.4</ele>
        <time>2021-03-12T09:17:43Z</time>
      </trkpt>
      <trkpt lat="44.85638" lon="4.76223">
        <ele>603.36</ele>
        <time>2021-03-12T09:17:50Z</time>
      </trkpt>
      <trkpt lat="44.85645" lon="4.76207">
        <ele>604.33</ele>
        <time>2021-03-12T09:17:59Z</time>
      </trkpt>
      <trkpt lat="44.85646" lon="4.762">
        <ele>605.29</ele>
        <time>2021-03-12T09:18:03Z</time>
      </trkpt>
      <trkpt lat="44.85647" lon="4.76193">
        <ele>606.25</ele>
        <time>2021-03-12T09:18:08Z</time>
      </trkpt>
      <trkpt lat="44.85649" lon="4.7619">
        <ele>606.25</ele>
        <time>2021-03-12T09:18:11Z</time>
      </trkpt>
      <trkpt lat="44.85652" lon="4.76188">
        <ele>606.25</ele>
        <time>2021-03-12T09:18:14Z</time>
      </trkpt>
      <trkpt lat="44.85652" lon="4.76179">
        <ele>606.73</ele>
        <time>2021-03-12T09:18:26Z</time>
      </trkpt>
      <trkpt lat="44.85652" lon="4.76179">
        <ele>606.73</ele>
        <time>2021-03-12T09:18:39Z</time>
      </trkpt>
      <trkpt lat="44.85652" lon="4.76184">
        <ele>606.25</ele>
        <time>2021-03-12T09:18:44Z</time>
      </trkpt>
      <trkpt lat="44.85647" lon="4.76185">
        <ele>606.73</ele>
        <time>2021-03-12T09:18:52Z</time>
      </trkpt>
      <trkpt lat="44.85642" lon="4.76168">
        <ele>607.69</ele>
        <time>2021-03-12T09:19:01Z</time>
      </trkpt>
      <trkpt lat="44.85633" lon="4.76148">
        <ele>607.21</ele>
        <time>2021-03-12T09:19:13Z</time>
      </trkpt>
      <trkpt lat="44.85625" lon="4.76122">
        <ele>607.21</ele>
        <time>2021-03-12T09:19:27Z</time>
      </trkpt>
      <trkpt lat="44.85618" lon="4.76109">
        <ele>607.21</ele>
        <time>2021-03-12T09:19:35Z</time>
      </trkpt>
      <trkpt lat="44.85615" lon="4.76102">
        <ele>606.25</ele>
        <time>2021-03-12T09:19:41Z</time>
      </trkpt>
      <trkpt lat="44.85601" lon="4.76076">
        <ele>605.29</ele>
        <time>2021-03-12T09:19:56Z</time>
      </trkpt>
      <trkpt lat="44.85594" lon="4.76068">
        <ele>604.81</ele>
        <time>2021-03-12T09:20:01Z</time>
      </trkpt>
      <trkpt lat="44.85583" lon="4.76056">
        <ele>604.33</ele>
        <time>2021-03-12T09:20:10Z</time>
      </trkpt>
      <trkpt lat="44.85579" lon="4.76053">
        <ele>603.85</ele>
        <time>2021-03-12T09:20:23Z</time>
      </trkpt>
      <trkpt lat="44.85579" lon="4.76053">
        <ele>603.85</ele>
        <time>2021-03-12T09:20:43Z</time>
      </trkpt>
      <trkpt lat="44.85579" lon="4.76053">
        <ele>603.36</ele>
        <time>2021-03-12T09:21:08Z</time>
      </trkpt>
      <trkpt lat="44.85579" lon="4.76054">
        <ele>603.36</ele>
        <time>2021-03-12T09:21:38Z</time>
      </trkpt>
      <trkpt lat="44.85571" lon="4.76044">
        <ele>602.88</ele>
        <time>2021-03-12T09:21:52Z</time>
      </trkpt>
      <trkpt lat="44.85557" lon="4.76031">
        <ele>600.48</ele>
        <time>2021-03-12T09:22:04Z</time>
      </trkpt>
      <trkpt lat="44.85556" lon="4.7603">
        <ele>600</ele>
        <time>2021-03-12T09:22:05Z</time>
      </trkpt>
      <trkpt lat="44.85551" lon="4.76022">
        <ele>599.04</ele>
        <time>2021-03-12T09:22:11Z</time>
      </trkpt>
      <trkpt lat="44.85546" lon="4.76017">
        <ele>598.08</ele>
        <time>2021-03-12T09:22:16Z</time>
      </trkpt>
      <trkpt lat="44.85545" lon="4.76014">
        <ele>597.6</ele>
        <time>2021-03-12T09:22:18Z</time>
      </trkpt>
      <trkpt lat="44.85541" lon="4.76002">
        <ele>595.19</ele>
        <time>2021-03-12T09:22:27Z</time>
      </trkpt>
      <trkpt lat="44.85535" lon="4.75993">
        <ele>593.75</ele>
        <time>2021-03-12T09:22:34Z</time>
      </trkpt>
      <trkpt lat="44.85537" lon="4.75967">
        <ele>592.31</ele>
        <time>2021-03-12T09:22:48Z</time>
      </trkpt>
      <trkpt lat="44.85543" lon="4.75954">
        <ele>595.67</ele>
        <time>2021-03-12T09:22:56Z</time>
      </trkpt>
      <trkpt lat="44.85545" lon="4.75951">
        <ele>592.31</ele>
        <time>2021-03-12T09:22:58Z</time>
      </trkpt>
      <trkpt lat="44.85546" lon="4.75949">
        <ele>596.64</ele>
        <time>2021-03-12T09:22:59Z</time>
      </trkpt>
      <trkpt lat="44.85559" lon="4.75917">
        <ele>595.19</ele>
        <time>2021-03-12T09:23:18Z</time>
      </trkpt>
      <trkpt lat="44.85567" lon="4.75902">
        <ele>595.19</ele>
        <time>2021-03-12T09:23:30Z</time>
      </trkpt>
      <trkpt lat="44.85578" lon="4.75925">
        <ele>595.19</ele>
        <time>2021-03-12T09:23:45Z</time>
      </trkpt>
      <trkpt lat="44.85579" lon="4.75925">
        <ele>595.19</ele>
        <time>2021-03-12T09:23:46Z</time>
      </trkpt>
      <trkpt lat="44.85597" lon="4.75918">
        <ele>592.79</ele>
        <time>2021-03-12T09:24:01Z</time>
      </trkpt>
      <trkpt lat="44.85608" lon="4.75907">
        <ele>589.43</ele>
        <time>2021-03-12T09:24:12Z</time>
      </trkpt>
      <trkpt lat="44.8561" lon="4.75905">
        <ele>587.02</ele>
        <time>2021-03-12T09:24:14Z</time>
      </trkpt>
      <trkpt lat="44.85613" lon="4.75898">
        <ele>588.95</ele>
        <time>2021-03-12T09:24:19Z</time>
      </trkpt>
      <trkpt lat="44.85621" lon="4.75885">
        <ele>587.5</ele>
        <time>2021-03-12T09:24:27Z</time>
      </trkpt>
      <trkpt lat="44.85622" lon="4.7588">
        <ele>587.02</ele>
        <time>2021-03-12T09:24:29Z</time>
      </trkpt>
      <trkpt lat="44.85627" lon="4.75873">
        <ele>586.54</ele>
        <time>2021-03-12T09:24:33Z</time>
      </trkpt>
      <trkpt lat="44.85632" lon="4.75859">
        <ele>585.58</ele>
        <time>2021-03-12T09:24:42Z</time>
      </trkpt>
      <trkpt lat="44.85636" lon="4.75843">
        <ele>583.66</ele>
        <time>2021-03-12T09:24:51Z</time>
      </trkpt>
      <trkpt lat="44.85635" lon="4.75835">
        <ele>582.7</ele>
        <time>2021-03-12T09:24:55Z</time>
      </trkpt>
      <trkpt lat="44.85637" lon="4.75823">
        <ele>580.29</ele>
        <time>2021-03-12T09:25:03Z</time>
      </trkpt>
      <trkpt lat="44.85639" lon="4.75801">
        <ele>577.89</ele>
        <time>2021-03-12T09:25:14Z</time>
      </trkpt>
      <trkpt lat="44.85643" lon="4.75792">
        <ele>575.97</ele>
        <time>2021-03-12T09:25:21Z</time>
      </trkpt>
      <trkpt lat="44.85644" lon="4.7578">
        <ele>574.04</ele>
        <time>2021-03-12T09:25:29Z</time>
      </trkpt>
      <trkpt lat="44.85647" lon="4.75776">
        <ele>573.56</ele>
        <time>2021-03-12T09:25:32Z</time>
      </trkpt>
      <trkpt lat="44.8565" lon="4.75769">
        <ele>572.12</ele>
        <time>2021-03-12T09:25:39Z</time>
      </trkpt>
      <trkpt lat="44.85657" lon="4.75767">
        <ele>570.68</ele>
        <time>2021-03-12T09:25:45Z</time>
      </trkpt>
      <trkpt lat="44.85674" lon="4.75756">
        <ele>567.32</ele>
        <time>2021-03-12T09:25:59Z</time>
      </trkpt>
      <trkpt lat="44.85686" lon="4.75748">
        <ele>565.87</ele>
        <time>2021-03-12T09:26:09Z</time>
      </trkpt>
      <trkpt lat="44.85699" lon="4.7574">
        <ele>564.43</ele>
        <time>2021-03-12T09:26:21Z</time>
      </trkpt>
      <trkpt lat="44.85701" lon="4.75738">
        <ele>564.91</ele>
        <time>2021-03-12T09:26:23Z</time>
      </trkpt>
      <trkpt lat="44.85722" lon="4.75721">
        <ele>562.99</ele>
        <time>2021-03-12T09:26:39Z</time>
      </trkpt>
      <trkpt lat="44.85724" lon="4.7572">
        <ele>547.13</ele>
        <time>2021-03-12T09:26:41Z</time>
      </trkpt>
      <trkpt lat="44.85725" lon="4.75719">
        <ele>577.41</ele>
        <time>2021-03-12T09:26:42Z</time>
      </trkpt>
      <trkpt lat="44.85726" lon="4.75717">
        <ele>563.47</ele>
        <time>2021-03-12T09:26:43Z</time>
      </trkpt>
      <trkpt lat="44.85728" lon="4.75716">
        <ele>554.82</ele>
        <time>2021-03-12T09:26:44Z</time>
      </trkpt>
      <trkpt lat="44.85729" lon="4.75715">
        <ele>567.8</ele>
        <time>2021-03-12T09:26:45Z</time>
      </trkpt>
      <trkpt lat="44.8573" lon="4.75714">
        <ele>562.51</ele>
        <time>2021-03-12T09:26:46Z</time>
      </trkpt>
      <trkpt lat="44.85733" lon="4.75712">
        <ele>541.36</ele>
        <time>2021-03-12T09:26:48Z</time>
      </trkpt>
      <trkpt lat="44.85734" lon="4.75711">
        <ele>583.66</ele>
        <time>2021-03-12T09:26:49Z</time>
      </trkpt>
      <trkpt lat="44.85735" lon="4.75711">
        <ele>563.47</ele>
        <time>2021-03-12T09:26:50Z</time>
      </trkpt>
      <trkpt lat="44.85737" lon="4.75709">
        <ele>562.51</ele>
        <time>2021-03-12T09:26:52Z</time>
      </trkpt>
      <trkpt lat="44.8575" lon="4.75693">
        <ele>560.59</ele>
        <time>2021-03-12T09:27:05Z</time>
      </trkpt>
      <trkpt lat="44.85762" lon="4.75675">
        <ele>558.66</ele>
        <time>2021-03-12T09:27:17Z</time>
      </trkpt>
      <trkpt lat="44.85765" lon="4.75662">
        <ele>557.7</ele>
        <time>2021-03-12T09:27:26Z</time>
      </trkpt>
      <trkpt lat="44.85775" lon="4.75646">
        <ele>557.22</ele>
        <time>2021-03-12T09:27:35Z</time>
      </trkpt>
      <trkpt lat="44.85778" lon="4.75631">
        <ele>556.74</ele>
        <time>2021-03-12T09:27:41Z</time>
      </trkpt>
      <trkpt lat="44.85782" lon="4.75609">
        <ele>556.26</ele>
        <time>2021-03-12T09:27:54Z</time>
      </trkpt>
      <trkpt lat="44.85783" lon="4.75604">
        <ele>555.78</ele>
        <time>2021-03-12T09:27:58Z</time>
      </trkpt>
      <trkpt lat="44.85778" lon="4.75572">
        <ele>554.34</ele>
        <time>2021-03-12T09:28:11Z</time>
      </trkpt>
      <trkpt lat="44.85772" lon="4.75551">
        <ele>553.38</ele>
        <time>2021-03-12T09:28:24Z</time>
      </trkpt>
      <trkpt lat="44.85767" lon="4.75532">
        <ele>544.24</ele>
        <time>2021-03-12T09:28:36Z</time>
      </trkpt>
      <trkpt lat="44.85767" lon="4.75531">
        <ele>556.26</ele>
        <time>2021-03-12T09:28:37Z</time>
      </trkpt>
      <trkpt lat="44.85766" lon="4.75528">
        <ele>551.45</ele>
        <time>2021-03-12T09:28:39Z</time>
      </trkpt>
      <trkpt lat="44.85765" lon="4.75525">
        <ele>539.44</ele>
        <time>2021-03-12T09:28:42Z</time>
      </trkpt>
      <trkpt lat="44.85765" lon="4.75525">
        <ele>565.87</ele>
        <time>2021-03-12T09:28:43Z</time>
      </trkpt>
      <trkpt lat="44.85765" lon="4.75525">
        <ele>560.11</ele>
        <time>2021-03-12T09:28:44Z</time>
      </trkpt>
      <trkpt lat="44.85765" lon="4.75525">
        <ele>548.09</ele>
        <time>2021-03-12T09:28:45Z</time>
      </trkpt>
      <trkpt lat="44.85765" lon="4.75525">
        <ele>548.57</ele>
        <time>2021-03-12T09:28:46Z</time>
      </trkpt>
      <trkpt lat="44.85765" lon="4.75525">
        <ele>554.34</ele>
        <time>2021-03-12T09:28:47Z</time>
      </trkpt>
      <trkpt lat="44.85765" lon="4.75517">
        <ele>546.17</ele>
        <time>2021-03-12T09:28:52Z</time>
      </trkpt>
      <trkpt lat="44.85765" lon="4.75515">
        <ele>554.34</ele>
        <time>2021-03-12T09:28:53Z</time>
      </trkpt>
      <trkpt lat="44.85765" lon="4.75514">
        <ele>550.49</ele>
        <time>2021-03-12T09:28:54Z</time>
      </trkpt>
    </trkseg>
  </trk>
</gpx>